Canefield Airport

Fair
31oC (88oF)

Fair


Winds: South easterly @ 04kts / 15km/h

Humidity: 43%

Barometric Pressure: 1011 mb

Accumulated Rainfall for April: 23.8 mm

Updated: 16:00 local time (20:00 UTC)

Douglas-Charles Airport

Fair
27oC (81oF)

Fair


Winds: East south easterly @ 07kts / 13km/h

Humidity: 78%

Barometric Pressure: 1014 mb

Accumulated Rainfall for April: 50.7 mm

Updated: 20:00 local time (00:00 UTC)

Satellite Imagery

Satellite Imagery
Click image for larger view.
(Source: National Hurricane Center).

Aviation Routine Report (METAR)

Douglas-Charles: METAR TDPD 160000Z 12007KT 9999 FEW022 27/23 Q1014=
Canefield: METAR TDCF 152000Z 14004KT 9999 FEW019 31/18 Q1011=